sensor_id;sensor_type;location;lat;lon;timestamp;P1;durP1;ratioP1;P2;durP2;ratioP2
12962;SDS011;6546;49.882;8.666;2022-09-09T00:00:18;2.77;;;1.27;;
12962;SDS011;6546;49.882;8.666;2022-09-09T00:02:48;2.40;;;1.20;;
12962;SDS011;6546;49.882;8.666;2022-09-09T00:05:23;2.23;;;1.10;;
12962;SDS011;6546;49.882;8.666;2022-09-09T00:07:57;1.97;;;1.20;;
12962;SDS011;6546;49.882;8.666;2022-09-09T00:10:26;2.23;;;1.20;;
12962;SDS011;6546;49.882;8.666;2022-09-09T00:12:57;2.30;;;1.00;;
12962;SDS011;6546;49.882;8.666;2022-09-09T00:15:31;3.33;;;1.37;;
12962;SDS011;6546;49.882;8.666;2022-09-09T00:18:07;1.77;;;1.13;;
12962;SDS011;6546;49.882;8.666;2022-09-09T00:20:43;3.93;;;1.23;;
12962;SDS011;6546;49.882;8.666;2022-09-09T00:23:17;3.90;;;1.50;;
12962;SDS011;6546;49.882;8.666;2022-09-09T00:25:53;5.40;;;1.50;;
12962;SDS011;6546;49.882;8.666;2022-09-09T00:28:27;2.93;;;1.47;;
12962;SDS011;6546;49.882;8.666;2022-09-09T00:30:57;2.77;;;1.20;;
12962;SDS011;6546;49.882;8.666;2022-09-09T00:33:33;3.93;;;1.40;;
12962;SDS011;6546;49.882;8.666;2022-09-09T00:36:00;3.03;;;1.50;;
12962;SDS011;6546;49.882;8.666;2022-09-09T00:38:31;4.87;;;1.57;;
12962;SDS011;6546;49.882;8.666;2022-09-09T00:41:03;3.77;;;1.30;;
12962;SDS011;6546;49.882;8.666;2022-09-09T00:43:40;5.13;;;1.37;;
12962;SDS011;6546;49.882;8.666;2022-09-09T00:46:14;4.30;;;1.40;;
12962;SDS011;6546;49.882;8.666;2022-09-09T00:48:53;2.90;;;1.23;;
12962;SDS011;6546;49.882;8.666;2022-09-09T00:51:28;4.37;;;1.60;;
12962;SDS011;6546;49.882;8.666;2022-09-09T00:54:12;3.40;;;1.20;;
12962;SDS011;6546;49.882;8.666;2022-09-09T00:56:52;4.47;;;1.10;;
12962;SDS011;6546;49.882;8.666;2022-09-09T00:59:28;3.83;;;1.30;;
12962;SDS011;6546;49.882;8.666;2022-09-09T01:02:03;3.37;;;1.30;;
12962;SDS011;6546;49.882;8.666;2022-09-09T01:04:39;2.90;;;1.20;;
12962;SDS011;6546;49.882;8.666;2022-09-09T01:07:11;2.57;;;1.40;;
12962;SDS011;6546;49.882;8.666;2022-09-09T01:09:45;4.10;;;1.20;;
12962;SDS011;6546;49.882;8.666;2022-09-09T01:12:23;3.40;;;1.10;;
12962;SDS011;6546;49.882;8.666;2022-09-09T01:14:58;3.23;;;1.40;;
12962;SDS011;6546;49.882;8.666;2022-09-09T01:17:31;2.50;;;1.13;;
12962;SDS011;6546;49.882;8.666;2022-09-09T01:20:04;1.53;;;1.20;;
12962;SDS011;6546;49.882;8.666;2022-09-09T01:22:40;2.90;;;1.30;;
12962;SDS011;6546;49.882;8.666;2022-09-09T01:25:20;1.87;;;1.30;;
12962;SDS011;6546;49.882;8.666;2022-09-09T01:28:29;2.60;;;1.00;;
12962;SDS011;6546;49.882;8.666;2022-09-09T01:30:57;2.53;;;1.23;;
12962;SDS011;6546;49.882;8.666;2022-09-09T01:33:25;2.50;;;1.30;;
12962;SDS011;6546;49.882;8.666;2022-09-09T01:35:52;4.23;;;1.80;;
12962;SDS011;6546;49.882;8.666;2022-09-09T01:38:23;3.17;;;1.53;;
12962;SDS011;6546;49.882;8.666;2022-09-09T01:40:52;2.70;;;1.83;;
12962;SDS011;6546;49.882;8.666;2022-09-09T01:43:20;2.57;;;1.10;;
12962;SDS011;6546;49.882;8.666;2022-09-09T01:45:49;4.27;;;1.40;;
12962;SDS011;6546;49.882;8.666;2022-09-09T01:48:19;4.40;;;1.60;;
12962;SDS011;6546;49.882;8.666;2022-09-09T01:50:48;3.50;;;1.00;;
12962;SDS011;6546;49.882;8.666;2022-09-09T01:53:15;2.47;;;1.37;;
12962;SDS011;6546;49.882;8.666;2022-09-09T01:55:44;3.67;;;1.67;;
12962;SDS011;6546;49.882;8.666;2022-09-09T01:58:25;4.97;;;1.40;;
12962;SDS011;6546;49.882;8.666;2022-09-09T02:01:00;2.83;;;1.53;;
12962;SDS011;6546;49.882;8.666;2022-09-09T02:03:32;4.33;;;1.53;;
12962;SDS011;6546;49.882;8.666;2022-09-09T02:06:01;4.27;;;1.83;;
12962;SDS011;6546;49.882;8.666;2022-09-09T02:08:40;3.30;;;1.77;;
12962;SDS011;6546;49.882;8.666;2022-09-09T02:11:12;4.27;;;1.70;;
12962;SDS011;6546;49.882;8.666;2022-09-09T02:13:42;2.47;;;1.60;;
12962;SDS011;6546;49.882;8.666;2022-09-09T02:16:12;3.93;;;1.73;;
12962;SDS011;6546;49.882;8.666;2022-09-09T02:18:44;3.30;;;1.53;;
12962;SDS011;6546;49.882;8.666;2022-09-09T02:21:16;3.47;;;1.37;;
12962;SDS011;6546;49.882;8.666;2022-09-09T02:23:44;4.33;;;1.57;;
12962;SDS011;6546;49.882;8.666;2022-09-09T02:26:17;2.57;;;1.57;;
12962;SDS011;6546;49.882;8.666;2022-09-09T02:28:48;2.50;;;1.43;;
12962;SDS011;6546;49.882;8.666;2022-09-09T02:31:17;4.57;;;1.40;;
12962;SDS011;6546;49.882;8.666;2022-09-09T02:33:46;3.33;;;1.50;;
12962;SDS011;6546;49.882;8.666;2022-09-09T02:36:17;4.80;;;1.53;;
12962;SDS011;6546;49.882;8.666;2022-09-09T02:38:47;5.63;;;1.60;;
12962;SDS011;6546;49.882;8.666;2022-09-09T02:41:18;4.10;;;1.53;;
12962;SDS011;6546;49.882;8.666;2022-09-09T02:43:49;2.87;;;1.50;;
12962;SDS011;6546;49.882;8.666;2022-09-09T02:46:21;2.73;;;1.50;;
12962;SDS011;6546;49.882;8.666;2022-09-09T02:48:58;2.97;;;1.10;;
12962;SDS011;6546;49.882;8.666;2022-09-09T02:51:30;1.40;;;1.20;;
12962;SDS011;6546;49.882;8.666;2022-09-09T02:54:03;2.83;;;1.30;;
12962;SDS011;6546;49.882;8.666;2022-09-09T02:56:37;2.93;;;1.40;;
12962;SDS011;6546;49.882;8.666;2022-09-09T02:59:09;3.90;;;1.67;;
12962;SDS011;6546;49.882;8.666;2022-09-09T03:01:36;2.70;;;1.10;;
12962;SDS011;6546;49.882;8.666;2022-09-09T03:04:05;3.93;;;1.30;;
12962;SDS011;6546;49.882;8.666;2022-09-09T03:06:31;5.07;;;1.43;;
12962;SDS011;6546;49.882;8.666;2022-09-09T03:08:58;4.50;;;1.70;;
12962;SDS011;6546;49.882;8.666;2022-09-09T03:11:26;2.90;;;1.50;;
12962;SDS011;6546;49.882;8.666;2022-09-09T03:13:53;2.50;;;1.40;;
12962;SDS011;6546;49.882;8.666;2022-09-09T03:16:22;2.40;;;1.60;;
12962;SDS011;6546;49.882;8.666;2022-09-09T03:18:48;5.27;;;1.80;;
12962;SDS011;6546;49.882;8.666;2022-09-09T03:21:15;2.93;;;1.50;;
12962;SDS011;6546;49.882;8.666;2022-09-09T03:23:42;4.67;;;1.50;;
12962;SDS011;6546;49.882;8.666;2022-09-09T03:26:10;2.57;;;1.30;;
12962;SDS011;6546;49.882;8.666;2022-09-09T03:28:36;3.30;;;1.43;;
12962;SDS011;6546;49.882;8.666;2022-09-09T03:31:04;2.90;;;1.20;;
12962;SDS011;6546;49.882;8.666;2022-09-09T03:33:36;2.47;;;1.30;;
12962;SDS011;6546;49.882;8.666;2022-09-09T03:36:03;2.83;;;1.40;;
12962;SDS011;6546;49.882;8.666;2022-09-09T03:38:30;4.23;;;1.50;;
12962;SDS011;6546;49.882;8.666;2022-09-09T03:40:57;6.73;;;1.77;;
12962;SDS011;6546;49.882;8.666;2022-09-09T03:43:24;2.63;;;1.40;;
12962;SDS011;6546;49.882;8.666;2022-09-09T03:45:51;2.60;;;1.10;;
12962;SDS011;6546;49.882;8.666;2022-09-09T03:48:20;5.00;;;1.50;;
12962;SDS011;6546;49.882;8.666;2022-09-09T03:50:49;3.60;;;1.37;;
12962;SDS011;6546;49.882;8.666;2022-09-09T03:53:17;4.43;;;1.47;;
12962;SDS011;6546;49.882;8.666;2022-09-09T03:55:45;3.10;;;1.37;;
12962;SDS011;6546;49.882;8.666;2022-09-09T03:58:13;3.53;;;1.63;;
12962;SDS011;6546;49.882;8.666;2022-09-09T04:00:43;2.53;;;1.67;;
12962;SDS011;6546;49.882;8.666;2022-09-09T04:03:13;1.90;;;1.43;;
12962;SDS011;6546;49.882;8.666;2022-09-09T04:05:40;2.43;;;1.17;;
12962;SDS011;6546;49.882;8.666;2022-09-09T04:08:08;5.37;;;1.47;;
12962;SDS011;6546;49.882;8.666;2022-09-09T04:10:36;3.50;;;1.40;;
12962;SDS011;6546;49.882;8.666;2022-09-09T04:13:03;4.53;;;2.00;;
12962;SDS011;6546;49.882;8.666;2022-09-09T04:15:30;3.13;;;1.67;;
12962;SDS011;6546;49.882;8.666;2022-09-09T04:17:56;3.30;;;1.50;;
12962;SDS011;6546;49.882;8.666;2022-09-09T04:20:23;3.37;;;1.40;;
12962;SDS011;6546;49.882;8.666;2022-09-09T04:22:49;5.63;;;1.63;;
12962;SDS011;6546;49.882;8.666;2022-09-09T04:25:17;2.83;;;1.47;;
12962;SDS011;6546;49.882;8.666;2022-09-09T04:27:44;5.27;;;1.50;;
12962;SDS011;6546;49.882;8.666;2022-09-09T04:30:11;3.83;;;1.40;;
12962;SDS011;6546;49.882;8.666;2022-09-09T04:32:38;2.13;;;1.50;;
12962;SDS011;6546;49.882;8.666;2022-09-09T04:35:04;5.40;;;1.40;;
12962;SDS011;6546;49.882;8.666;2022-09-09T04:37:31;3.87;;;1.30;;
12962;SDS011;6546;49.882;8.666;2022-09-09T04:39:58;4.90;;;1.30;;
12962;SDS011;6546;49.882;8.666;2022-09-09T04:42:29;3.70;;;1.50;;
12962;SDS011;6546;49.882;8.666;2022-09-09T04:44:55;5.70;;;1.50;;
12962;SDS011;6546;49.882;8.666;2022-09-09T04:47:22;4.87;;;1.57;;
12962;SDS011;6546;49.882;8.666;2022-09-09T04:49:48;2.57;;;1.67;;
12962;SDS011;6546;49.882;8.666;2022-09-09T04:52:15;3.37;;;1.43;;
12962;SDS011;6546;49.882;8.666;2022-09-09T04:54:42;4.63;;;1.27;;
12962;SDS011;6546;49.882;8.666;2022-09-09T04:57:10;2.93;;;1.37;;
12962;SDS011;6546;49.882;8.666;2022-09-09T04:59:38;3.10;;;1.40;;
12962;SDS011;6546;49.882;8.666;2022-09-09T05:02:05;3.17;;;1.30;;
12962;SDS011;6546;49.882;8.666;2022-09-09T05:04:32;5.77;;;2.00;;
12962;SDS011;6546;49.882;8.666;2022-09-09T05:06:59;3.53;;;1.20;;
12962;SDS011;6546;49.882;8.666;2022-09-09T05:09:26;5.57;;;1.40;;
12962;SDS011;6546;49.882;8.666;2022-09-09T05:11:52;2.37;;;1.50;;
12962;SDS011;6546;49.882;8.666;2022-09-09T05:14:19;2.50;;;1.37;;
12962;SDS011;6546;49.882;8.666;2022-09-09T05:16:47;2.10;;;1.30;;
12962;SDS011;6546;49.882;8.666;2022-09-09T05:19:14;4.60;;;1.47;;
12962;SDS011;6546;49.882;8.666;2022-09-09T05:21:44;3.40;;;1.20;;
12962;SDS011;6546;49.882;8.666;2022-09-09T05:24:10;5.43;;;1.50;;
12962;SDS011;6546;49.882;8.666;2022-09-09T05:26:37;5.40;;;1.73;;
12962;SDS011;6546;49.882;8.666;2022-09-09T05:29:03;3.07;;;1.30;;
12962;SDS011;6546;49.882;8.666;2022-09-09T05:31:31;4.03;;;1.20;;
12962;SDS011;6546;49.882;8.666;2022-09-09T05:33:59;2.30;;;1.10;;
12962;SDS011;6546;49.882;8.666;2022-09-09T05:36:25;3.50;;;1.10;;
12962;SDS011;6546;49.882;8.666;2022-09-09T05:38:52;5.57;;;1.70;;
12962;SDS011;6546;49.882;8.666;2022-09-09T05:41:19;2.40;;;1.50;;
12962;SDS011;6546;49.882;8.666;2022-09-09T05:43:48;3.33;;;1.53;;
12962;SDS011;6546;49.882;8.666;2022-09-09T05:46:15;2.93;;;1.10;;
12962;SDS011;6546;49.882;8.666;2022-09-09T05:48:43;6.90;;;1.60;;
12962;SDS011;6546;49.882;8.666;2022-09-09T05:51:14;2.40;;;1.20;;
12962;SDS011;6546;49.882;8.666;2022-09-09T05:53:42;3.13;;;1.10;;
12962;SDS011;6546;49.882;8.666;2022-09-09T05:56:10;2.03;;;1.37;;
12962;SDS011;6546;49.882;8.666;2022-09-09T05:58:39;2.70;;;1.53;;
12962;SDS011;6546;49.882;8.666;2022-09-09T06:01:09;3.43;;;1.23;;
12962;SDS011;6546;49.882;8.666;2022-09-09T06:03:37;3.97;;;1.40;;
12962;SDS011;6546;49.882;8.666;2022-09-09T06:06:06;3.37;;;1.10;;
12962;SDS011;6546;49.882;8.666;2022-09-09T06:08:35;3.43;;;1.20;;
12962;SDS011;6546;49.882;8.666;2022-09-09T06:11:03;4.07;;;1.30;;
12962;SDS011;6546;49.882;8.666;2022-09-09T06:13:31;3.37;;;1.40;;
12962;SDS011;6546;49.882;8.666;2022-09-09T06:15:58;5.40;;;1.20;;
12962;SDS011;6546;49.882;8.666;2022-09-09T06:18:25;2.07;;;1.03;;
12962;SDS011;6546;49.882;8.666;2022-09-09T06:20:53;4.10;;;1.43;;
12962;SDS011;6546;49.882;8.666;2022-09-09T06:23:21;4.43;;;1.20;;
12962;SDS011;6546;49.882;8.666;2022-09-09T06:25:49;4.57;;;1.47;;
12962;SDS011;6546;49.882;8.666;2022-09-09T06:28:16;6.33;;;1.40;;
12962;SDS011;6546;49.882;8.666;2022-09-09T06:30:42;3.67;;;1.30;;
12962;SDS011;6546;49.882;8.666;2022-09-09T06:33:09;3.87;;;1.43;;
12962;SDS011;6546;49.882;8.666;2022-09-09T06:35:36;2.97;;;1.63;;
12962;SDS011;6546;49.882;8.666;2022-09-09T06:38:02;6.73;;;1.70;;
12962;SDS011;6546;49.882;8.666;2022-09-09T06:40:33;4.27;;;1.50;;
12962;SDS011;6546;49.882;8.666;2022-09-09T06:43:01;6.47;;;1.30;;
12962;SDS011;6546;49.882;8.666;2022-09-09T06:45:28;3.37;;;1.30;;
12962;SDS011;6546;49.882;8.666;2022-09-09T06:47:55;2.17;;;1.23;;
12962;SDS011;6546;49.882;8.666;2022-09-09T06:50:22;4.87;;;1.30;;
12962;SDS011;6546;49.882;8.666;2022-09-09T06:52:49;2.87;;;1.10;;
12962;SDS011;6546;49.882;8.666;2022-09-09T06:55:15;4.10;;;1.17;;
12962;SDS011;6546;49.882;8.666;2022-09-09T06:57:43;6.93;;;1.40;;
12962;SDS011;6546;49.882;8.666;2022-09-09T07:00:12;5.17;;;1.20;;
12962;SDS011;6546;49.882;8.666;2022-09-09T07:02:39;3.70;;;1.43;;
12962;SDS011;6546;49.882;8.666;2022-09-09T07:05:06;4.50;;;1.70;;
12962;SDS011;6546;49.882;8.666;2022-09-09T07:07:33;3.50;;;1.37;;
12962;SDS011;6546;49.882;8.666;2022-09-09T07:10:00;2.10;;;1.10;;
12962;SDS011;6546;49.882;8.666;2022-09-09T07:12:28;4.90;;;1.50;;
12962;SDS011;6546;49.882;8.666;2022-09-09T07:14:54;3.73;;;1.20;;
12962;SDS011;6546;49.882;8.666;2022-09-09T07:17:22;5.50;;;1.20;;
12962;SDS011;6546;49.882;8.666;2022-09-09T07:19:49;6.53;;;1.53;;
12962;SDS011;6546;49.882;8.666;2022-09-09T07:22:15;5.20;;;1.83;;
12962;SDS011;6546;49.882;8.666;2022-09-09T07:24:42;4.90;;;1.60;;
12962;SDS011;6546;49.882;8.666;2022-09-09T07:27:10;6.60;;;1.60;;
12962;SDS011;6546;49.882;8.666;2022-09-09T07:29:36;7.97;;;1.70;;
12962;SDS011;6546;49.882;8.666;2022-09-09T07:32:03;4.90;;;1.80;;
12962;SDS011;6546;49.882;8.666;2022-09-09T07:34:32;5.87;;;1.77;;
12962;SDS011;6546;49.882;8.666;2022-09-09T07:36:59;5.43;;;1.80;;
12962;SDS011;6546;49.882;8.666;2022-09-09T07:39:25;10.40;;;5.37;;
12962;SDS011;6546;49.882;8.666;2022-09-09T07:41:52;6.07;;;1.73;;
12962;SDS011;6546;49.882;8.666;2022-09-09T07:44:20;5.63;;;1.50;;
12962;SDS011;6546;49.882;8.666;2022-09-09T07:46:48;3.13;;;1.43;;
12962;SDS011;6546;49.882;8.666;2022-09-09T07:49:15;7.47;;;1.40;;
12962;SDS011;6546;49.882;8.666;2022-09-09T07:51:44;5.63;;;1.50;;
12962;SDS011;6546;49.882;8.666;2022-09-09T07:54:14;4.87;;;1.87;;
12962;SDS011;6546;49.882;8.666;2022-09-09T07:56:42;4.30;;;1.53;;
12962;SDS011;6546;49.882;8.666;2022-09-09T07:59:08;3.63;;;1.60;;
12962;SDS011;6546;49.882;8.666;2022-09-09T08:01:37;5.37;;;1.47;;
12962;SDS011;6546;49.882;8.666;2022-09-09T08:04:06;7.30;;;1.67;;
12962;SDS011;6546;49.882;8.666;2022-09-09T08:06:35;5.77;;;2.10;;
12962;SDS011;6546;49.882;8.666;2022-09-09T08:09:06;6.10;;;1.73;;
12962;SDS011;6546;49.882;8.666;2022-09-09T08:11:34;5.77;;;1.67;;
12962;SDS011;6546;49.882;8.666;2022-09-09T08:14:02;3.47;;;1.53;;
12962;SDS011;6546;49.882;8.666;2022-09-09T08:16:30;5.73;;;1.50;;
12962;SDS011;6546;49.882;8.666;2022-09-09T08:18:58;5.67;;;1.80;;
12962;SDS011;6546;49.882;8.666;2022-09-09T08:21:25;8.90;;;2.00;;
12962;SDS011;6546;49.882;8.666;2022-09-09T08:23:54;4.77;;;1.60;;
12962;SDS011;6546;49.882;8.666;2022-09-09T08:26:23;8.67;;;1.90;;
12962;SDS011;6546;49.882;8.666;2022-09-09T08:28:52;6.80;;;1.87;;
12962;SDS011;6546;49.882;8.666;2022-09-09T08:31:21;5.30;;;1.60;;
12962;SDS011;6546;49.882;8.666;2022-09-09T08:33:50;10.43;;;1.97;;
12962;SDS011;6546;49.882;8.666;2022-09-09T08:36:17;6.60;;;1.73;;
12962;SDS011;6546;49.882;8.666;2022-09-09T08:38:47;6.07;;;2.00;;
12962;SDS011;6546;49.882;8.666;2022-09-09T08:44:25;7.33;;;1.60;;
12962;SDS011;6546;49.882;8.666;2022-09-09T08:47:06;5.53;;;1.97;;
12962;SDS011;6546;49.882;8.666;2022-09-09T08:49:49;8.97;;;1.80;;
12962;SDS011;6546;49.882;8.666;2022-09-09T08:52:29;14.80;;;2.00;;
12962;SDS011;6546;49.882;8.666;2022-09-09T08:54:59;6.40;;;1.67;;
12962;SDS011;6546;49.882;8.666;2022-09-09T08:57:39;3.50;;;1.43;;
12962;SDS011;6546;49.882;8.666;2022-09-09T09:00:08;4.53;;;1.63;;
12962;SDS011;6546;49.882;8.666;2022-09-09T09:02:38;6.97;;;1.60;;
12962;SDS011;6546;49.882;8.666;2022-09-09T09:05:17;7.00;;;1.70;;
12962;SDS011;6546;49.882;8.666;2022-09-09T09:07:52;5.93;;;1.60;;
12962;SDS011;6546;49.882;8.666;2022-09-09T09:10:29;7.70;;;1.70;;
12962;SDS011;6546;49.882;8.666;2022-09-09T09:13:08;5.10;;;2.20;;
12962;SDS011;6546;49.882;8.666;2022-09-09T09:15:41;11.10;;;3.50;;
12962;SDS011;6546;49.882;8.666;2022-09-09T09:18:10;14.60;;;3.73;;
12962;SDS011;6546;49.882;8.666;2022-09-09T09:20:42;11.20;;;2.80;;
12962;SDS011;6546;49.882;8.666;2022-09-09T09:23:20;10.03;;;2.70;;
12962;SDS011;6546;49.882;8.666;2022-09-09T09:25:49;11.10;;;2.47;;
12962;SDS011;6546;49.882;8.666;2022-09-09T09:28:24;9.90;;;2.40;;
12962;SDS011;6546;49.882;8.666;2022-09-09T09:30:53;9.40;;;2.77;;
12962;SDS011;6546;49.882;8.666;2022-09-09T09:33:25;11.10;;;3.00;;
12962;SDS011;6546;49.882;8.666;2022-09-09T09:35:58;8.63;;;2.90;;
12962;SDS011;6546;49.882;8.666;2022-09-09T09:38:25;8.23;;;2.17;;
12962;SDS011;6546;49.882;8.666;2022-09-09T09:40:54;7.53;;;2.40;;
12962;SDS011;6546;49.882;8.666;2022-09-09T09:43:25;6.80;;;2.23;;
12962;SDS011;6546;49.882;8.666;2022-09-09T09:45:59;7.70;;;1.83;;
12962;SDS011;6546;49.882;8.666;2022-09-09T09:48:26;10.10;;;1.97;;
12962;SDS011;6546;49.882;8.666;2022-09-09T09:50:54;7.67;;;1.83;;
12962;SDS011;6546;49.882;8.666;2022-09-09T09:53:23;8.07;;;1.70;;
12962;SDS011;6546;49.882;8.666;2022-09-09T09:55:57;6.77;;;2.33;;
12962;SDS011;6546;49.882;8.666;2022-09-09T09:58:26;6.33;;;1.80;;
12962;SDS011;6546;49.882;8.666;2022-09-09T10:00:56;6.57;;;1.63;;
12962;SDS011;6546;49.882;8.666;2022-09-09T10:03:25;7.10;;;1.97;;
12962;SDS011;6546;49.882;8.666;2022-09-09T10:05:54;5.47;;;1.50;;
12962;SDS011;6546;49.882;8.666;2022-09-09T10:08:22;4.10;;;1.40;;
12962;SDS011;6546;49.882;8.666;2022-09-09T10:11:05;7.67;;;1.50;;
12962;SDS011;6546;49.882;8.666;2022-09-09T10:13:51;5.00;;;1.40;;
12962;SDS011;6546;49.882;8.666;2022-09-09T10:16:26;7.17;;;1.73;;
12962;SDS011;6546;49.882;8.666;2022-09-09T10:19:05;4.70;;;1.40;;
12962;SDS011;6546;49.882;8.666;2022-09-09T10:24:37;5.70;;;1.57;;
12962;SDS011;6546;49.882;8.666;2022-09-09T10:27:18;3.40;;;1.40;;
12962;SDS011;6546;49.882;8.666;2022-09-09T10:32:46;4.43;;;2.00;;
12962;SDS011;6546;49.882;8.666;2022-09-09T10:35:21;5.03;;;1.80;;
12962;SDS011;6546;49.882;8.666;2022-09-09T10:37:57;5.33;;;2.03;;
12962;SDS011;6546;49.882;8.666;2022-09-09T10:40:39;4.10;;;1.53;;
12962;SDS011;6546;49.882;8.666;2022-09-09T10:43:14;6.60;;;1.70;;
12962;SDS011;6546;49.882;8.666;2022-09-09T10:45:56;12.13;;;3.30;;
12962;SDS011;6546;49.882;8.666;2022-09-09T10:48:40;7.97;;;2.77;;
12962;SDS011;6546;49.882;8.666;2022-09-09T10:51:27;9.57;;;2.50;;
12962;SDS011;6546;49.882;8.666;2022-09-09T10:54:05;8.77;;;2.37;;
12962;SDS011;6546;49.882;8.666;2022-09-09T10:56:48;8.07;;;2.53;;
12962;SDS011;6546;49.882;8.666;2022-09-09T10:59:22;6.97;;;2.40;;
12962;SDS011;6546;49.882;8.666;2022-09-09T11:01:53;7.50;;;2.20;;
12962;SDS011;6546;49.882;8.666;2022-09-09T11:04:25;7.10;;;2.67;;
12962;SDS011;6546;49.882;8.666;2022-09-09T11:06:57;9.00;;;2.50;;
12962;SDS011;6546;49.882;8.666;2022-09-09T11:09:31;6.73;;;1.93;;
12962;SDS011;6546;49.882;8.666;2022-09-09T11:12:02;6.10;;;1.70;;
12962;SDS011;6546;49.882;8.666;2022-09-09T11:14:30;3.33;;;1.80;;
12962;SDS011;6546;49.882;8.666;2022-09-09T11:17:04;8.17;;;1.90;;
12962;SDS011;6546;49.882;8.666;2022-09-09T11:19:37;5.70;;;2.00;;
12962;SDS011;6546;49.882;8.666;2022-09-09T11:22:08;4.63;;;1.70;;
12962;SDS011;6546;49.882;8.666;2022-09-09T11:24:44;5.07;;;2.17;;
12962;SDS011;6546;49.882;8.666;2022-09-09T11:27:15;6.83;;;2.20;;
12962;SDS011;6546;49.882;8.666;2022-09-09T11:32:49;7.37;;;2.00;;
12962;SDS011;6546;49.882;8.666;2022-09-09T11:35:33;6.30;;;2.20;;
12962;SDS011;6546;49.882;8.666;2022-09-09T11:38:15;6.30;;;1.80;;
12962;SDS011;6546;49.882;8.666;2022-09-09T11:40:45;6.63;;;2.23;;
12962;SDS011;6546;49.882;8.666;2022-09-09T11:43:15;5.63;;;2.47;;
12962;SDS011;6546;49.882;8.666;2022-09-09T11:45:50;8.27;;;2.27;;
12962;SDS011;6546;49.882;8.666;2022-09-09T11:48:25;6.67;;;2.30;;
12962;SDS011;6546;49.882;8.666;2022-09-09T11:50:58;5.23;;;2.30;;
12962;SDS011;6546;49.882;8.666;2022-09-09T11:53:30;9.97;;;2.80;;
12962;SDS011;6546;49.882;8.666;2022-09-09T11:56:01;5.67;;;2.37;;
12962;SDS011;6546;49.882;8.666;2022-09-09T11:58:33;4.40;;;2.00;;
12962;SDS011;6546;49.882;8.666;2022-09-09T12:01:15;6.70;;;2.03;;
12962;SDS011;6546;49.882;8.666;2022-09-09T12:03:59;7.03;;;2.63;;
12962;SDS011;6546;49.882;8.666;2022-09-09T12:06:40;4.67;;;1.97;;
12962;SDS011;6546;49.882;8.666;2022-09-09T12:09:15;4.67;;;1.80;;
12962;SDS011;6546;49.882;8.666;2022-09-09T12:11:46;6.47;;;1.83;;
12962;SDS011;6546;49.882;8.666;2022-09-09T12:14:19;9.87;;;2.10;;
12962;SDS011;6546;49.882;8.666;2022-09-09T12:16:47;7.73;;;2.60;;
12962;SDS011;6546;49.882;8.666;2022-09-09T12:19:18;8.50;;;2.67;;
12962;SDS011;6546;49.882;8.666;2022-09-09T12:21:49;7.40;;;2.40;;
12962;SDS011;6546;49.882;8.666;2022-09-09T12:24:23;5.77;;;2.53;;
12962;SDS011;6546;49.882;8.666;2022-09-09T12:26:58;3.73;;;1.90;;
12962;SDS011;6546;49.882;8.666;2022-09-09T12:29:36;5.30;;;1.80;;
12962;SDS011;6546;49.882;8.666;2022-09-09T12:32:09;6.30;;;1.77;;
12962;SDS011;6546;49.882;8.666;2022-09-09T12:34:40;4.30;;;2.47;;
12962;SDS011;6546;49.882;8.666;2022-09-09T12:37:12;4.90;;;1.73;;
12962;SDS011;6546;49.882;8.666;2022-09-09T12:39:45;4.07;;;1.70;;
12962;SDS011;6546;49.882;8.666;2022-09-09T12:42:16;6.27;;;2.07;;
12962;SDS011;6546;49.882;8.666;2022-09-09T12:44:50;7.73;;;2.10;;
12962;SDS011;6546;49.882;8.666;2022-09-09T12:47:18;7.57;;;2.10;;
12962;SDS011;6546;49.882;8.666;2022-09-09T12:49:48;5.13;;;2.00;;
12962;SDS011;6546;49.882;8.666;2022-09-09T12:52:17;3.50;;;1.63;;
12962;SDS011;6546;49.882;8.666;2022-09-09T12:54:51;3.57;;;1.43;;
12962;SDS011;6546;49.882;8.666;2022-09-09T12:57:19;4.80;;;1.20;;
12962;SDS011;6546;49.882;8.666;2022-09-09T12:59:49;10.20;;;2.00;;
12962;SDS011;6546;49.882;8.666;2022-09-09T13:02:20;3.90;;;1.37;;
12962;SDS011;6546;49.882;8.666;2022-09-09T13:04:49;3.93;;;1.07;;
12962;SDS011;6546;49.882;8.666;2022-09-09T13:07:16;3.20;;;1.40;;
12962;SDS011;6546;49.882;8.666;2022-09-09T13:09:44;4.47;;;1.10;;
12962;SDS011;6546;49.882;8.666;2022-09-09T13:12:13;3.60;;;1.13;;
12962;SDS011;6546;49.882;8.666;2022-09-09T13:14:42;3.47;;;1.10;;
12962;SDS011;6546;49.882;8.666;2022-09-09T13:17:21;2.83;;;1.23;;
12962;SDS011;6546;49.882;8.666;2022-09-09T13:19:50;2.70;;;1.13;;
12962;SDS011;6546;49.882;8.666;2022-09-09T13:22:20;4.07;;;1.00;;
12962;SDS011;6546;49.882;8.666;2022-09-09T13:24:58;3.30;;;1.10;;
12962;SDS011;6546;49.882;8.666;2022-09-09T13:27:29;2.73;;;0.83;;
12962;SDS011;6546;49.882;8.666;2022-09-09T13:29:57;2.90;;;1.00;;
12962;SDS011;6546;49.882;8.666;2022-09-09T13:32:24;3.03;;;1.20;;
12962;SDS011;6546;49.882;8.666;2022-09-09T13:34:54;2.63;;;0.80;;
12962;SDS011;6546;49.882;8.666;2022-09-09T13:37:23;2.83;;;0.80;;
12962;SDS011;6546;49.882;8.666;2022-09-09T13:39:53;2.43;;;0.80;;
12962;SDS011;6546;49.882;8.666;2022-09-09T13:42:24;2.60;;;0.90;;
12962;SDS011;6546;49.882;8.666;2022-09-09T13:44:52;1.93;;;0.70;;
12962;SDS011;6546;49.882;8.666;2022-09-09T13:47:21;2.53;;;0.93;;
12962;SDS011;6546;49.882;8.666;2022-09-09T13:49:54;2.83;;;1.10;;
12962;SDS011;6546;49.882;8.666;2022-09-09T13:52:21;3.50;;;0.77;;
12962;SDS011;6546;49.882;8.666;2022-09-09T13:54:47;3.20;;;0.90;;
12962;SDS011;6546;49.882;8.666;2022-09-09T13:57:16;3.43;;;1.37;;
12962;SDS011;6546;49.882;8.666;2022-09-09T13:59:45;1.93;;;1.30;;
12962;SDS011;6546;49.882;8.666;2022-09-09T14:02:12;2.90;;;0.83;;
12962;SDS011;6546;49.882;8.666;2022-09-09T14:04:39;1.70;;;0.90;;
12962;SDS011;6546;49.882;8.666;2022-09-09T14:07:09;1.87;;;1.00;;
12962;SDS011;6546;49.882;8.666;2022-09-09T14:09:39;3.83;;;0.97;;
12962;SDS011;6546;49.882;8.666;2022-09-09T14:12:08;2.43;;;1.13;;
12962;SDS011;6546;49.882;8.666;2022-09-09T14:14:35;2.73;;;0.90;;
12962;SDS011;6546;49.882;8.666;2022-09-09T14:17:01;3.73;;;1.13;;
12962;SDS011;6546;49.882;8.666;2022-09-09T14:19:28;2.77;;;1.20;;
12962;SDS011;6546;49.882;8.666;2022-09-09T14:21:55;3.13;;;1.30;;
12962;SDS011;6546;49.882;8.666;2022-09-09T14:24:23;6.13;;;1.13;;
12962;SDS011;6546;49.882;8.666;2022-09-09T14:26:50;4.47;;;1.60;;
12962;SDS011;6546;49.882;8.666;2022-09-09T14:29:17;2.47;;;0.83;;
12962;SDS011;6546;49.882;8.666;2022-09-09T14:31:44;2.20;;;1.07;;
12962;SDS011;6546;49.882;8.666;2022-09-09T14:34:10;3.33;;;1.00;;
12962;SDS011;6546;49.882;8.666;2022-09-09T14:36:37;2.50;;;1.10;;
12962;SDS011;6546;49.882;8.666;2022-09-09T14:39:04;4.47;;;1.43;;
12962;SDS011;6546;49.882;8.666;2022-09-09T14:41:32;2.77;;;1.30;;
12962;SDS011;6546;49.882;8.666;2022-09-09T14:43:58;4.57;;;1.30;;
12962;SDS011;6546;49.882;8.666;2022-09-09T14:46:25;4.50;;;1.20;;
12962;SDS011;6546;49.882;8.666;2022-09-09T14:48:52;4.00;;;1.27;;
12962;SDS011;6546;49.882;8.666;2022-09-09T14:51:19;3.63;;;1.60;;
12962;SDS011;6546;49.882;8.666;2022-09-09T14:53:50;2.07;;;1.30;;
12962;SDS011;6546;49.882;8.666;2022-09-09T14:56:18;2.40;;;1.40;;
12962;SDS011;6546;49.882;8.666;2022-09-09T14:58:48;3.50;;;1.50;;
12962;SDS011;6546;49.882;8.666;2022-09-09T15:01:16;3.07;;;1.20;;
12962;SDS011;6546;49.882;8.666;2022-09-09T15:03:48;2.23;;;1.30;;
12962;SDS011;6546;49.882;8.666;2022-09-09T15:06:16;3.30;;;1.40;;
12962;SDS011;6546;49.882;8.666;2022-09-09T15:08:44;3.77;;;1.33;;
12962;SDS011;6546;49.882;8.666;2022-09-09T15:11:12;3.20;;;1.60;;
12962;SDS011;6546;49.882;8.666;2022-09-09T15:13:40;4.27;;;1.70;;
12962;SDS011;6546;49.882;8.666;2022-09-09T15:16:10;3.97;;;1.53;;
12962;SDS011;6546;49.882;8.666;2022-09-09T15:18:38;3.97;;;1.50;;
12962;SDS011;6546;49.882;8.666;2022-09-09T15:21:08;6.37;;;1.60;;
12962;SDS011;6546;49.882;8.666;2022-09-09T15:23:35;4.67;;;1.50;;
12962;SDS011;6546;49.882;8.666;2022-09-09T15:26:02;3.07;;;1.10;;
12962;SDS011;6546;49.882;8.666;2022-09-09T15:28:29;2.80;;;1.40;;
12962;SDS011;6546;49.882;8.666;2022-09-09T15:30:58;3.43;;;0.97;;